sensor_id;sensor_type;location;lat;lon;timestamp;pressure;altitude;pressure_sealevel;temperature;humidity
66385;BME280;53426;55.872;37.462;2022-11-18T00:00:48;98512.16;;;-5.74;69.74
66385;BME280;53426;55.872;37.462;2022-11-18T00:03:15;98508.91;;;-5.79;69.98
66385;BME280;53426;55.872;37.462;2022-11-18T00:05:41;98502.44;;;-5.67;70.10
66385;BME280;53426;55.872;37.462;2022-11-18T00:08:07;98531.56;;;-5.64;69.79
66385;BME280;53426;55.872;37.462;2022-11-18T00:10:36;98534.13;;;-5.64;70.05
66385;BME280;53426;55.872;37.462;2022-11-18T00:13:02;98507.88;;;-5.75;70.23
66385;BME280;53426;55.872;37.462;2022-11-18T00:15:46;98535.16;;;-5.68;70.17
66385;BME280;53426;55.872;37.462;2022-11-18T00:18:12;98533.81;;;-5.55;69.96
66385;BME280;53426;55.872;37.462;2022-11-18T00:20:38;98525.31;;;-5.57;70.37
66385;BME280;53426;55.872;37.462;2022-11-18T00:23:03;98514.44;;;-5.66;70.04
66385;BME280;53426;55.872;37.462;2022-11-18T00:25:29;98532.13;;;-5.56;69.93
66385;BME280;53426;55.872;37.462;2022-11-18T00:27:55;98520.81;;;-5.52;69.84
66385;BME280;53426;55.872;37.462;2022-11-18T00:30:21;98515.50;;;-5.47;69.45
66385;BME280;53426;55.872;37.462;2022-11-18T00:32:49;98529.50;;;-5.54;69.81
66385;BME280;53426;55.872;37.462;2022-11-18T00:35:15;98509.81;;;-5.57;69.73
66385;BME280;53426;55.872;37.462;2022-11-18T00:37:41;98515.78;;;-5.56;69.62
66385;BME280;53426;55.872;37.462;2022-11-18T00:40:07;98514.84;;;-5.54;69.81
66385;BME280;53426;55.872;37.462;2022-11-18T00:42:33;98519.59;;;-5.41;69.47
66385;BME280;53426;55.872;37.462;2022-11-18T00:45:18;98517.84;;;-5.41;69.54
66385;BME280;53426;55.872;37.462;2022-11-18T00:47:47;98515.44;;;-5.45;69.76
66385;BME280;53426;55.872;37.462;2022-11-18T00:50:13;98523.84;;;-5.40;69.53
66385;BME280;53426;55.872;37.462;2022-11-18T00:52:39;98511.06;;;-5.43;69.63
66385;BME280;53426;55.872;37.462;2022-11-18T00:55:06;98502.53;;;-5.45;69.73
66385;BME280;53426;55.872;37.462;2022-11-18T00:57:34;98511.94;;;-5.44;69.29
66385;BME280;53426;55.872;37.462;2022-11-18T01:00:00;98506.06;;;-5.48;69.80
66385;BME280;53426;55.872;37.462;2022-11-18T01:02:26;98513.47;;;-5.39;69.55
66385;BME280;53426;55.872;37.462;2022-11-18T01:04:51;98514.09;;;-5.32;69.58
66385;BME280;53426;55.872;37.462;2022-11-18T01:07:17;98502.81;;;-5.30;69.33
66385;BME280;53426;55.872;37.462;2022-11-18T01:09:43;98500.38;;;-5.34;69.18
66385;BME280;53426;55.872;37.462;2022-11-18T01:12:10;98499.16;;;-5.47;69.66
66385;BME280;53426;55.872;37.462;2022-11-18T01:14:55;98488.84;;;-5.47;69.48
66385;BME280;53426;55.872;37.462;2022-11-18T01:17:20;98491.59;;;-5.52;69.22
66385;BME280;53426;55.872;37.462;2022-11-18T01:19:46;98468.13;;;-5.68;69.12
66385;BME280;53426;55.872;37.462;2022-11-18T01:22:12;98484.53;;;-5.47;69.34
66385;BME280;53426;55.872;37.462;2022-11-18T01:24:38;98498.28;;;-5.46;68.98
66385;BME280;53426;55.872;37.462;2022-11-18T01:27:03;98500.44;;;-5.59;69.56
66385;BME280;53426;55.872;37.462;2022-11-18T01:29:29;98481.06;;;-5.69;69.75
66385;BME280;53426;55.872;37.462;2022-11-18T01:31:55;98485.81;;;-5.59;69.76
66385;BME280;53426;55.872;37.462;2022-11-18T01:34:21;98473.59;;;-5.54;69.52
66385;BME280;53426;55.872;37.462;2022-11-18T01:36:47;98486.94;;;-5.42;69.28
66385;BME280;53426;55.872;37.462;2022-11-18T01:39:13;98491.31;;;-5.44;69.15
66385;BME280;53426;55.872;37.462;2022-11-18T01:41:38;98476.84;;;-5.49;69.02
66385;BME280;53426;55.872;37.462;2022-11-18T01:47:08;98490.97;;;-5.59;69.30
66385;BME280;53426;55.872;37.462;2022-11-18T01:49:34;98448.66;;;-5.76;69.46
66385;BME280;53426;55.872;37.462;2022-11-18T01:52:00;98485.81;;;-5.59;69.27
66385;BME280;53426;55.872;37.462;2022-11-18T01:54:35;98480.28;;;-5.48;69.10
66385;BME280;53426;55.872;37.462;2022-11-18T01:57:07;98463.19;;;-5.74;69.00
66385;BME280;53426;55.872;37.462;2022-11-18T01:59:36;98488.41;;;-5.59;69.28
66385;BME280;53426;55.872;37.462;2022-11-18T02:02:06;98467.19;;;-5.67;69.14
66385;BME280;53426;55.872;37.462;2022-11-18T02:04:33;98458.56;;;-5.66;69.19
66385;BME280;53426;55.872;37.462;2022-11-18T02:06:59;98455.22;;;-5.68;69.19
66385;BME280;53426;55.872;37.462;2022-11-18T02:09:26;98467.59;;;-5.54;68.74
66385;BME280;53426;55.872;37.462;2022-11-18T02:11:51;98447.16;;;-5.59;68.72
66385;BME280;53426;55.872;37.462;2022-11-18T02:14:29;98458.25;;;-5.57;69.01
66385;BME280;53426;55.872;37.462;2022-11-18T02:24:40;98470.13;;;-5.53;68.59
66385;BME280;53426;55.872;37.462;2022-11-18T02:30:03;98465.50;;;-5.44;68.56
66385;BME280;53426;55.872;37.462;2022-11-18T02:35:39;98462.03;;;-5.67;68.54
66385;BME280;53426;55.872;37.462;2022-11-18T02:38:36;98461.78;;;-5.59;69.26
66385;BME280;53426;55.872;37.462;2022-11-18T02:41:05;98469.00;;;-5.69;68.77
66385;BME280;53426;55.872;37.462;2022-11-18T02:43:36;98466.09;;;-5.60;68.99
66385;BME280;53426;55.872;37.462;2022-11-18T02:46:10;98447.38;;;-5.65;68.80
66385;BME280;53426;55.872;37.462;2022-11-18T02:48:41;98423.50;;;-5.93;69.04
66385;BME280;53426;55.872;37.462;2022-11-18T02:51:09;98459.59;;;-5.70;69.58
66385;BME280;53426;55.872;37.462;2022-11-18T02:53:37;98451.84;;;-5.70;69.40
66385;BME280;53426;55.872;37.462;2022-11-18T02:56:05;98442.16;;;-5.63;69.43
66385;BME280;53426;55.872;37.462;2022-11-18T02:58:33;98451.19;;;-5.52;68.91
66385;BME280;53426;55.872;37.462;2022-11-18T03:01:00;98447.47;;;-5.44;68.82
66385;BME280;53426;55.872;37.462;2022-11-18T03:03:33;98462.72;;;-5.38;68.68
66385;BME280;53426;55.872;37.462;2022-11-18T03:09:30;98452.53;;;-5.41;69.11
66385;BME280;53426;55.872;37.462;2022-11-18T03:12:13;98453.41;;;-5.42;68.81
66385;BME280;53426;55.872;37.462;2022-11-18T03:20:26;98458.34;;;-5.36;68.83
66385;BME280;53426;55.872;37.462;2022-11-18T03:28:50;98426.97;;;-5.47;69.13
66385;BME280;53426;55.872;37.462;2022-11-18T03:31:40;98399.66;;;-5.53;68.69
66385;BME280;53426;55.872;37.462;2022-11-18T03:34:22;98434.28;;;-5.37;68.69
66385;BME280;53426;55.872;37.462;2022-11-18T03:36:58;98427.50;;;-5.39;68.86
66385;BME280;53426;55.872;37.462;2022-11-18T03:39:27;98430.47;;;-5.27;69.28
66385;BME280;53426;55.872;37.462;2022-11-18T03:44:44;98438.56;;;-5.36;68.53
66385;BME280;53426;55.872;37.462;2022-11-18T03:47:17;98415.19;;;-5.55;69.21
66385;BME280;53426;55.872;37.462;2022-11-18T03:49:49;98425.72;;;-5.37;69.42
66385;BME280;53426;55.872;37.462;2022-11-18T03:52:35;98424.69;;;-5.33;69.28
66385;BME280;53426;55.872;37.462;2022-11-18T03:55:07;98403.94;;;-5.52;68.93
66385;BME280;53426;55.872;37.462;2022-11-18T03:58:09;98432.38;;;-5.32;69.14
66385;BME280;53426;55.872;37.462;2022-11-18T04:00:44;98429.63;;;-5.27;69.15
66385;BME280;53426;55.872;37.462;2022-11-18T04:03:11;98437.91;;;-5.19;68.97
66385;BME280;53426;55.872;37.462;2022-11-18T04:05:39;98410.66;;;-5.26;68.93
66385;BME280;53426;55.872;37.462;2022-11-18T04:08:17;98423.09;;;-5.14;68.60
66385;BME280;53426;55.872;37.462;2022-11-18T04:11:10;98426.56;;;-5.15;68.97
66385;BME280;53426;55.872;37.462;2022-11-18T04:14:03;98413.19;;;-5.25;68.72
66385;BME280;53426;55.872;37.462;2022-11-18T04:16:40;98422.53;;;-5.22;68.66
66385;BME280;53426;55.872;37.462;2022-11-18T04:19:06;98425.78;;;-5.17;68.63
66385;BME280;53426;55.872;37.462;2022-11-18T04:21:35;98415.09;;;-5.30;68.70
66385;BME280;53426;55.872;37.462;2022-11-18T04:24:01;98435.44;;;-5.22;68.56
66385;BME280;53426;55.872;37.462;2022-11-18T04:26:27;98393.88;;;-5.36;68.70
66385;BME280;53426;55.872;37.462;2022-11-18T04:28:53;98420.75;;;-5.20;68.60
66385;BME280;53426;55.872;37.462;2022-11-18T04:31:18;98414.78;;;-5.22;68.43
66385;BME280;53426;55.872;37.462;2022-11-18T04:33:44;98428.53;;;-5.22;68.42
66385;BME280;53426;55.872;37.462;2022-11-18T04:36:10;98427.69;;;-5.22;68.58
66385;BME280;53426;55.872;37.462;2022-11-18T04:38:35;98428.44;;;-5.19;68.72
66385;BME280;53426;55.872;37.462;2022-11-18T04:41:01;98414.78;;;-5.22;67.72
66385;BME280;53426;55.872;37.462;2022-11-18T04:43:27;98416.66;;;-5.26;67.96
66385;BME280;53426;55.872;37.462;2022-11-18T04:45:53;98423.75;;;-5.31;68.09
66385;BME280;53426;55.872;37.462;2022-11-18T04:48:18;98389.81;;;-5.65;68.48
66385;BME280;53426;55.872;37.462;2022-11-18T04:50:44;98433.31;;;-5.34;68.74
66385;BME280;53426;55.872;37.462;2022-11-18T04:53:10;98418.53;;;-5.29;68.10
66385;BME280;53426;55.872;37.462;2022-11-18T04:55:36;98401.69;;;-5.39;68.14
66385;BME280;53426;55.872;37.462;2022-11-18T04:58:02;98424.13;;;-5.18;67.80
66385;BME280;53426;55.872;37.462;2022-11-18T05:00:29;98417.75;;;-5.31;68.14
66385;BME280;53426;55.872;37.462;2022-11-18T05:02:54;98427.47;;;-5.16;67.75
66385;BME280;53426;55.872;37.462;2022-11-18T05:05:20;98412.03;;;-5.18;67.82
66385;BME280;53426;55.872;37.462;2022-11-18T05:07:46;98404.94;;;-5.34;67.81
66385;BME280;53426;55.872;37.462;2022-11-18T05:10:12;98403.63;;;-5.44;68.09
66385;BME280;53426;55.872;37.462;2022-11-18T05:12:38;98433.09;;;-5.28;68.05
66385;BME280;53426;55.872;37.462;2022-11-18T05:15:18;98419.59;;;-5.35;68.03
66385;BME280;53426;55.872;37.462;2022-11-18T05:17:45;98421.56;;;-5.41;68.15
66385;BME280;53426;55.872;37.462;2022-11-18T05:20:11;98426.28;;;-5.29;68.24
66385;BME280;53426;55.872;37.462;2022-11-18T05:22:37;98427.09;;;-5.29;68.16
66385;BME280;53426;55.872;37.462;2022-11-18T05:25:03;98422.09;;;-5.33;68.12
66385;BME280;53426;55.872;37.462;2022-11-18T05:27:29;98434.00;;;-5.29;68.06
66385;BME280;53426;55.872;37.462;2022-11-18T05:29:55;98427.16;;;-5.30;68.11
66385;BME280;53426;55.872;37.462;2022-11-18T05:32:21;98428.59;;;-5.23;68.22
66385;BME280;53426;55.872;37.462;2022-11-18T05:34:46;98428.72;;;-5.26;68.05
66385;BME280;53426;55.872;37.462;2022-11-18T05:37:13;98433.75;;;-5.23;68.18
66385;BME280;53426;55.872;37.462;2022-11-18T05:39:39;98416.22;;;-5.37;68.09
66385;BME280;53426;55.872;37.462;2022-11-18T05:42:06;98431.59;;;-5.12;67.96
66385;BME280;53426;55.872;37.462;2022-11-18T05:44:50;98434.31;;;-5.15;67.83
66385;BME280;53426;55.872;37.462;2022-11-18T05:47:17;98424.00;;;-5.15;67.88
66385;BME280;53426;55.872;37.462;2022-11-18T05:49:43;98437.91;;;-5.19;67.80
66385;BME280;53426;55.872;37.462;2022-11-18T05:52:08;98406.81;;;-5.38;67.78
66385;BME280;53426;55.872;37.462;2022-11-18T05:54:41;98433.69;;;-5.22;67.74
66385;BME280;53426;55.872;37.462;2022-11-18T05:57:09;98436.09;;;-5.17;67.84
66385;BME280;53426;55.872;37.462;2022-11-18T05:59:35;98435.44;;;-5.22;67.73
66385;BME280;53426;55.872;37.462;2022-11-18T06:02:11;98443.78;;;-5.16;68.12
66385;BME280;53426;55.872;37.462;2022-11-18T06:07:34;98430.72;;;-5.34;68.10
66385;BME280;53426;55.872;37.462;2022-11-18T06:10:04;98428.84;;;-5.29;68.16
66385;BME280;53426;55.872;37.462;2022-11-18T06:12:34;98416.41;;;-5.41;68.00
66385;BME280;53426;55.872;37.462;2022-11-18T06:15:08;98433.31;;;-5.34;68.61
66385;BME280;53426;55.872;37.462;2022-11-18T06:17:45;98423.84;;;-5.34;68.71
66385;BME280;53426;55.872;37.462;2022-11-18T06:20:12;98434.31;;;-5.15;68.22
66385;BME280;53426;55.872;37.462;2022-11-18T06:22:38;98415.81;;;-5.26;68.05
66385;BME280;53426;55.872;37.462;2022-11-18T06:25:07;98413.94;;;-5.23;68.21
66385;BME280;53426;55.872;37.462;2022-11-18T06:27:33;98431.69;;;-5.14;68.02
66385;BME280;53426;55.872;37.462;2022-11-18T06:29:59;98415.09;;;-5.30;68.54
66385;BME280;53426;55.872;37.462;2022-11-18T06:32:43;98417.16;;;-5.16;68.67
66385;BME280;53426;55.872;37.462;2022-11-18T06:35:09;98423.63;;;-5.06;68.37
66385;BME280;53426;55.872;37.462;2022-11-18T06:37:35;98412.69;;;-5.13;68.08
66385;BME280;53426;55.872;37.462;2022-11-18T06:40:01;98431.31;;;-5.04;68.46
66385;BME280;53426;55.872;37.462;2022-11-18T06:42:32;98434.75;;;-5.04;68.30
66385;BME280;53426;55.872;37.462;2022-11-18T06:45:16;98388.16;;;-5.23;67.88
66385;BME280;53426;55.872;37.462;2022-11-18T06:47:42;98441.50;;;-5.01;68.21
66385;BME280;53426;55.872;37.462;2022-11-18T06:50:08;98437.56;;;-5.10;68.18
66385;BME280;53426;55.872;37.462;2022-11-18T06:56:36;98423.84;;;-5.12;68.54
66385;BME280;53426;55.872;37.462;2022-11-18T06:59:02;98420.19;;;-5.07;67.94
66385;BME280;53426;55.872;37.462;2022-11-18T07:01:30;98418.69;;;-5.12;67.90
66385;BME280;53426;55.872;37.462;2022-11-18T07:03:58;98422.72;;;-5.05;67.86
66385;BME280;53426;55.872;37.462;2022-11-18T07:06:26;98429.19;;;-4.95;68.34
66385;BME280;53426;55.872;37.462;2022-11-18T07:08:53;98433.00;;;-4.82;68.00
66385;BME280;53426;55.872;37.462;2022-11-18T07:11:21;98419.91;;;-4.77;67.41
66385;BME280;53426;55.872;37.462;2022-11-18T07:13:48;98420.59;;;-4.74;67.30
66385;BME280;53426;55.872;37.462;2022-11-18T07:22:01;98407.19;;;-4.82;67.41
66385;BME280;53426;55.872;37.462;2022-11-18T07:24:27;98416.53;;;-4.79;68.09
66385;BME280;53426;55.872;37.462;2022-11-18T07:26:56;98427.41;;;-4.93;68.24
66385;BME280;53426;55.872;37.462;2022-11-18T07:29:22;98417.69;;;-4.86;67.89
66385;BME280;53426;55.872;37.462;2022-11-18T07:37:46;98430.94;;;-4.74;68.23
66385;BME280;53426;55.872;37.462;2022-11-18T07:40:12;98427.81;;;-4.60;67.57
66385;BME280;53426;55.872;37.462;2022-11-18T07:42:38;98428.34;;;-4.74;67.76
66385;BME280;53426;55.872;37.462;2022-11-18T07:45:21;98432.50;;;-4.70;67.93
66385;BME280;53426;55.872;37.462;2022-11-18T07:47:49;98440.91;;;-4.65;67.89
66385;BME280;53426;55.872;37.462;2022-11-18T07:50:16;98436.31;;;-4.58;67.77
66385;BME280;53426;55.872;37.462;2022-11-18T07:52:42;98422.25;;;-4.51;67.27
66385;BME280;53426;55.872;37.462;2022-11-18T07:55:21;98422.38;;;-4.54;67.28
66385;BME280;53426;55.872;37.462;2022-11-18T07:58:11;98439.78;;;-4.37;67.21
66385;BME280;53426;55.872;37.462;2022-11-18T08:00:37;98442.50;;;-4.62;67.44
66385;BME280;53426;55.872;37.462;2022-11-18T08:03:02;98437.09;;;-4.56;67.46
66385;BME280;53426;55.872;37.462;2022-11-18T08:05:29;98442.41;;;-4.39;67.09
66385;BME280;53426;55.872;37.462;2022-11-18T08:07:54;98432.38;;;-4.46;67.16
66385;BME280;53426;55.872;37.462;2022-11-18T08:10:20;98436.34;;;-4.38;67.05
66385;BME280;53426;55.872;37.462;2022-11-18T08:16:31;98409.53;;;-4.55;67.35
66385;BME280;53426;55.872;37.462;2022-11-18T08:28:04;98445.50;;;-4.31;67.01
66385;BME280;53426;55.872;37.462;2022-11-18T08:30:32;98452.34;;;-4.30;66.63
66385;BME280;53426;55.872;37.462;2022-11-18T08:32:58;98434.91;;;-4.25;66.34
66385;BME280;53426;55.872;37.462;2022-11-18T08:35:28;98432.88;;;-4.16;66.56
66385;BME280;53426;55.872;37.462;2022-11-18T08:37:54;98418.19;;;-4.16;67.06
66385;BME280;53426;55.872;37.462;2022-11-18T08:40:20;98438.84;;;-3.96;65.89
66385;BME280;53426;55.872;37.462;2022-11-18T08:42:46;98435.94;;;-4.08;66.10
66385;BME280;53426;55.872;37.462;2022-11-18T08:45:12;98446.44;;;-4.11;66.24
66385;BME280;53426;55.872;37.462;2022-11-18T08:47:38;98451.00;;;-4.18;66.26
66385;BME280;53426;55.872;37.462;2022-11-18T08:50:06;98442.03;;;-4.30;66.73
66385;BME280;53426;55.872;37.462;2022-11-18T08:52:32;98445.19;;;-4.23;67.24
66385;BME280;53426;55.872;37.462;2022-11-18T08:55:01;98420.06;;;-4.19;66.62
66385;BME280;53426;55.872;37.462;2022-11-18T08:57:29;98451.84;;;-3.97;66.07
66385;BME280;53426;55.872;37.462;2022-11-18T08:59:56;98442.88;;;-3.89;66.33
66385;BME280;53426;55.872;37.462;2022-11-18T09:02:22;98456.53;;;-3.87;65.58
66385;BME280;53426;55.872;37.462;2022-11-18T09:04:50;98451.31;;;-3.85;65.56
66385;BME280;53426;55.872;37.462;2022-11-18T09:07:20;98436.78;;;-3.88;65.86
66385;BME280;53426;55.872;37.462;2022-11-18T09:15:43;98442.03;;;-4.09;65.72
66385;BME280;53426;55.872;37.462;2022-11-18T09:18:08;98451.41;;;-4.07;65.84
66385;BME280;53426;55.872;37.462;2022-11-18T09:20:34;98445.91;;;-4.19;66.50
66385;BME280;53426;55.872;37.462;2022-11-18T09:23:25;98464.47;;;-4.10;66.36
66385;BME280;53426;55.872;37.462;2022-11-18T09:29:07;98438.22;;;-4.21;66.84
66385;BME280;53426;55.872;37.462;2022-11-18T09:31:33;98439.31;;;-4.27;66.14
66385;BME280;53426;55.872;37.462;2022-11-18T09:33:59;98454.97;;;-4.09;66.32
66385;BME280;53426;55.872;37.462;2022-11-18T09:36:25;98449.41;;;-4.00;66.41
66385;BME280;53426;55.872;37.462;2022-11-18T10:03:47;98458.50;;;-3.92;66.08
66385;BME280;53426;55.872;37.462;2022-11-18T10:06:27;98452.31;;;-3.88;65.76
66385;BME280;53426;55.872;37.462;2022-11-18T10:17:36;98462.34;;;-3.43;64.88
66385;BME280;53426;55.872;37.462;2022-11-18T10:25:35;98457.03;;;-3.58;64.92
66385;BME280;53426;55.872;37.462;2022-11-18T10:28:24;98481.47;;;-3.45;64.87
66385;BME280;53426;55.872;37.462;2022-11-18T10:30:50;98471.13;;;-3.65;65.02
66385;BME280;53426;55.872;37.462;2022-11-18T10:33:30;98466.63;;;-3.60;65.07
66385;BME280;53426;55.872;37.462;2022-11-18T10:38:42;98467.16;;;-3.72;65.41
66385;BME280;53426;55.872;37.462;2022-11-18T10:41:11;98493.97;;;-3.55;65.47
66385;BME280;53426;55.872;37.462;2022-11-18T10:43:47;98506.22;;;-3.78;65.79
66385;BME280;53426;55.872;37.462;2022-11-18T10:49:12;98496.28;;;-3.69;65.83
66385;BME280;53426;55.872;37.462;2022-11-18T10:51:48;98495.00;;;-3.59;66.08
66385;BME280;53426;55.872;37.462;2022-11-18T11:03:41;98497.88;;;-3.46;66.58
66385;BME280;53426;55.872;37.462;2022-11-18T11:08:57;98481.94;;;-3.56;66.51
66385;BME280;53426;55.872;37.462;2022-11-18T11:11:54;98509.66;;;-3.39;66.38
66385;BME280;53426;55.872;37.462;2022-11-18T11:14:47;98502.38;;;-3.31;66.44
66385;BME280;53426;55.872;37.462;2022-11-18T11:17:35;98489.28;;;-3.47;65.98
66385;BME280;53426;55.872;37.462;2022-11-18T11:20:23;98510.03;;;-3.48;66.17
66385;BME280;53426;55.872;37.462;2022-11-18T11:22:52;98489.53;;;-3.71;66.28
66385;BME280;53426;55.872;37.462;2022-11-18T11:25:34;98517.69;;;-3.45;66.29
66385;BME280;53426;55.872;37.462;2022-11-18T11:32:10;98515.22;;;-3.48;66.54
66385;BME280;53426;55.872;37.462;2022-11-18T11:37:54;98526.66;;;-3.33;66.27
66385;BME280;53426;55.872;37.462;2022-11-18T11:40:48;98519.75;;;-3.33;66.45
66385;BME280;53426;55.872;37.462;2022-11-18T11:43:46;98533.84;;;-3.21;66.37
66385;BME280;53426;55.872;37.462;2022-11-18T11:46:49;98507.97;;;-3.40;66.69
66385;BME280;53426;55.872;37.462;2022-11-18T12:00:03;98549.97;;;-3.15;66.12
66385;BME280;53426;55.872;37.462;2022-11-18T12:05:55;98533.59;;;-3.15;66.15
66385;BME280;53426;55.872;37.462;2022-11-18T12:08:24;98540.38;;;-3.13;65.93
66385;BME280;53426;55.872;37.462;2022-11-18T12:17:00;98522.72;;;-3.42;66.30
66385;BME280;53426;55.872;37.462;2022-11-18T12:19:29;98550.06;;;-3.37;66.28
66385;BME280;53426;55.872;37.462;2022-11-18T12:21:57;98523.75;;;-3.46;66.60
66385;BME280;53426;55.872;37.462;2022-11-18T12:30:17;98504.13;;;-3.70;66.65
66385;BME280;53426;55.872;37.462;2022-11-18T12:32:43;98560.50;;;-3.58;67.44
66385;BME280;53426;55.872;37.462;2022-11-18T12:50:11;98559.19;;;-3.48;66.67
66385;BME280;53426;55.872;37.462;2022-11-18T13:06:29;98597.50;;;-3.56;67.36
66385;BME280;53426;55.872;37.462;2022-11-18T13:11:53;98600.59;;;-3.48;67.29
66385;BME280;53426;55.872;37.462;2022-11-18T13:14:41;98607.53;;;-3.49;67.87
66385;BME280;53426;55.872;37.462;2022-11-18T13:17:35;98605.66;;;-3.45;67.86
66385;BME280;53426;55.872;37.462;2022-11-18T13:20:30;98609.47;;;-3.54;67.53
66385;BME280;53426;55.872;37.462;2022-11-18T13:23:00;98602.69;;;-3.56;67.62
66385;BME280;53426;55.872;37.462;2022-11-18T13:26:16;98612.84;;;-3.52;67.71
66385;BME280;53426;55.872;37.462;2022-11-18T13:34:22;98612.88;;;-3.53;67.67
66385;BME280;53426;55.872;37.462;2022-11-18T13:36:49;98623.13;;;-3.50;67.65
66385;BME280;53426;55.872;37.462;2022-11-18T13:39:22;98631.00;;;-3.53;67.41
66385;BME280;53426;55.872;37.462;2022-11-18T13:42:58;98639.16;;;-3.62;67.47
66385;BME280;53426;55.872;37.462;2022-11-18T13:44:53;98641.78;;;-3.64;68.00
66385;BME280;53426;55.872;37.462;2022-11-18T13:50:34;98645.06;;;-3.39;67.52
66385;BME280;53426;55.872;37.462;2022-11-18T13:56:01;98643.19;;;-3.35;67.19
66385;BME280;53426;55.872;37.462;2022-11-18T13:59:03;98637.41;;;-3.42;67.40
66385;BME280;53426;55.872;37.462;2022-11-18T14:01:26;98650.81;;;-3.32;67.28
66385;BME280;53426;55.872;37.462;2022-11-18T14:03:55;98642.53;;;-3.40;66.95
66385;BME280;53426;55.872;37.462;2022-11-18T14:09:51;98620.78;;;-3.56;67.29
66385;BME280;53426;55.872;37.462;2022-11-18T14:12:26;98624.03;;;-3.51;66.89
66385;BME280;53426;55.872;37.462;2022-11-18T14:18:47;98645.63;;;-3.52;67.43
66385;BME280;53426;55.872;37.462;2022-11-18T14:21:26;98642.78;;;-3.46;67.72
66385;BME280;53426;55.872;37.462;2022-11-18T14:23:52;98652.09;;;-3.42;67.31
66385;BME280;53426;55.872;37.462;2022-11-18T14:26:35;98642.38;;;-3.37;67.14
66385;BME280;53426;55.872;37.462;2022-11-18T14:29:16;98644.34;;;-3.42;67.20
66385;BME280;53426;55.872;37.462;2022-11-18T14:36:08;98629.63;;;-3.82;67.18
66385;BME280;53426;55.872;37.462;2022-11-18T14:38:49;98624.13;;;-3.95;67.70
66385;BME280;53426;55.872;37.462;2022-11-18T14:41:19;98630.88;;;-3.92;68.87
66385;BME280;53426;55.872;37.462;2022-11-18T14:44:39;98665.28;;;-3.68;67.69
66385;BME280;53426;55.872;37.462;2022-11-18T14:47:16;98637.28;;;-4.01;67.67
66385;BME280;53426;55.872;37.462;2022-11-18T14:49:45;98651.56;;;-3.92;68.58
66385;BME280;53426;55.872;37.462;2022-11-18T14:52:12;98651.41;;;-3.88;68.66
66385;BME280;53426;55.872;37.462;2022-11-18T14:54:38;98661.13;;;-3.72;68.74
66385;BME280;53426;55.872;37.462;2022-11-18T15:02:48;98654.78;;;-3.65;68.49
66385;BME280;53426;55.872;37.462;2022-11-18T15:05:21;98657.66;;;-3.71;68.52
66385;BME280;53426;55.872;37.462;2022-11-18T15:07:47;98663.81;;;-3.75;68.45
66385;BME280;53426;55.872;37.462;2022-11-18T15:10:14;98662.50;;;-3.86;68.88
66385;BME280;53426;55.872;37.462;2022-11-18T15:12:40;98646.25;;;-3.88;68.95
66385;BME280;53426;55.872;37.462;2022-11-18T15:15:06;98665.06;;;-3.84;68.93
66385;BME280;53426;55.872;37.462;2022-11-18T15:17:33;98662.47;;;-3.84;68.70
66385;BME280;53426;55.872;37.462;2022-11-18T15:19:59;98668.66;;;-3.88;68.91
66385;BME280;53426;55.872;37.462;2022-11-18T15:34:14;98664.22;;;-3.85;68.27
66385;BME280;53426;55.872;37.462;2022-11-18T15:36:40;98669.31;;;-3.83;68.45
66385;BME280;53426;55.872;37.462;2022-11-18T15:39:08;98667.41;;;-3.78;68.41
66385;BME280;53426;55.872;37.462;2022-11-18T15:41:34;98639.56;;;-3.93;68.00
66385;BME280;53426;55.872;37.462;2022-11-18T15:44:05;98662.22;;;-3.78;68.12
66385;BME280;53426;55.872;37.462;2022-11-18T15:46:34;98645.25;;;-3.85;67.99
66385;BME280;53426;55.872;37.462;2022-11-18T15:49:00;98671.59;;;-3.75;67.90
66385;BME280;53426;55.872;37.462;2022-11-18T15:51:27;98652.81;;;-3.81;68.38
66385;BME280;53426;55.872;37.462;2022-11-18T15:53:53;98632.63;;;-3.93;68.01
66385;BME280;53426;55.872;37.462;2022-11-18T15:59:14;98693.59;;;-3.65;68.16
66385;BME280;53426;55.872;37.462;2022-11-18T16:06:08;98679.06;;;-3.68;68.23
66385;BME280;53426;55.872;37.462;2022-11-18T16:08:34;98712.25;;;-3.57;68.51
66385;BME280;53426;55.872;37.462;2022-11-18T16:11:00;98684.22;;;-3.68;68.21
66385;BME280;53426;55.872;37.462;2022-11-18T16:13:44;98711.56;;;-3.41;68.27
66385;BME280;53426;55.872;37.462;2022-11-18T16:16:20;98706.44;;;-3.42;68.02
66385;BME280;53426;55.872;37.462;2022-11-18T16:29:16;98704.03;;;-3.89;68.46
66385;BME280;53426;55.872;37.462;2022-11-18T16:31:43;98687.72;;;-3.91;69.11
66385;BME280;53426;55.872;37.462;2022-11-18T16:34:13;98720.19;;;-3.62;68.41
66385;BME280;53426;55.872;37.462;2022-11-18T16:36:45;98739.56;;;-3.50;68.23
66385;BME280;53426;55.872;37.462;2022-11-18T16:39:20;98732.81;;;-3.54;68.79
66385;BME280;53426;55.872;37.462;2022-11-18T16:41:58;98728.81;;;-3.61;68.88
66385;BME280;53426;55.872;37.462;2022-11-18T16:48:10;98744.09;;;-3.77;68.39
66385;BME280;53426;55.872;37.462;2022-11-18T16:50:36;98756.03;;;-3.74;69.04
66385;BME280;53426;55.872;37.462;2022-11-18T17:02:04;98744.25;;;-3.82;68.98
66385;BME280;53426;55.872;37.462;2022-11-18T17:07:55;98772.22;;;-3.69;68.90
66385;BME280;53426;55.872;37.462;2022-11-18T17:13:27;98772.41;;;-3.52;68.88
66385;BME280;53426;55.872;37.462;2022-11-18T17:15:53;98787.31;;;-3.37;68.97
66385;BME280;53426;55.872;37.462;2022-11-18T17:18:18;98786.13;;;-3.28;68.17
66385;BME280;53426;55.872;37.462;2022-11-18T17:20:44;98747.38;;;-3.52;68.07
66385;BME280;53426;55.872;37.462;2022-11-18T17:23:10;98768.56;;;-3.42;68.34
66385;BME280;53426;55.872;37.462;2022-11-18T17:25:35;98763.50;;;-3.45;67.77
66385;BME280;53426;55.872;37.462;2022-11-18T17:28:04;98792.00;;;-3.25;67.78
66385;BME280;53426;55.872;37.462;2022-11-18T17:30:30;98777.88;;;-3.38;67.99
66385;BME280;53426;55.872;37.462;2022-11-18T17:32:56;98771.56;;;-3.31;68.04
66385;BME280;53426;55.872;37.462;2022-11-18T17:38:13;98777.88;;;-3.38;67.83
66385;BME280;53426;55.872;37.462;2022-11-18T17:43:58;98791.56;;;-3.34;67.90
66385;BME280;53426;55.872;37.462;2022-11-18T17:46:24;98796.78;;;-3.36;68.26
66385;BME280;53426;55.872;37.462;2022-11-18T17:48:54;98795.09;;;-3.37;67.66